Terminal Aerodrome Forecast
Issued by NWS

Current Version | Previous Version | Graphics & Text | Print | Product List | Glossary On
Versions: 1 2 3 4 5 6 7 8 9 10 11 12 13 14 15 16 17 18 19 20
304
FTUS41 KPBZ 162322
TAFHLG
TAF
KHLG 162322Z 1700/1724 28010KT P6SM BKN025
     FM170600 29007KT P6SM BKN035
     FM171300 24003KT P6SM BKN050
     FM171900 18003KT P6SM SCT100=

USA.gov is the U.S. government's official web portal to all federal, state and local government web resources and services.